createdAt,value
2022-09-26T00:01:40.841Z,99.90
2022-09-26T00:04:24.646Z,99.90
2022-09-26T00:06:59.955Z,99.90
2022-09-26T00:09:42.639Z,99.90
2022-09-26T00:12:15.088Z,99.90
2022-09-26T00:15:02.074Z,99.90
2022-09-26T00:18:29.911Z,99.90
2022-09-26T00:20:46.497Z,99.90
2022-09-26T00:23:14.804Z,99.90
2022-09-26T00:25:46.715Z,99.90
2022-09-26T00:28:15.018Z,99.90
2022-09-26T00:30:44.634Z,99.90
2022-09-26T00:33:14.080Z,99.90
2022-09-26T00:35:42.073Z,99.90
2022-09-26T04:47:15.589Z,99.90
2022-09-26T04:49:43.876Z,99.90
2022-09-26T04:52:14.105Z,99.90
2022-09-26T04:54:42.188Z,99.90
2022-09-26T04:57:10.248Z,99.90
2022-09-26T04:59:38.228Z,99.90
2022-09-26T05:02:06.505Z,99.90
2022-09-26T05:04:36.221Z,99.90
2022-09-26T05:07:04.183Z,99.90
2022-09-26T05:09:35.907Z,99.90
2022-09-26T05:12:04.491Z,99.90
2022-09-26T05:14:33.929Z,99.90
2022-09-26T10:59:48.941Z,73.30
2022-09-26T11:02:22.636Z,65.40
2022-09-26T11:05:29.068Z,61.40
2022-09-26T11:07:58.324Z,61.00
2022-09-26T11:10:32.386Z,58.20
2022-09-26T11:13:03.398Z,56.20
2022-09-26T11:15:32.763Z,58.50
2022-09-26T11:18:01.662Z,66.70
2022-09-26T11:20:41.737Z,63.40
2022-09-26T11:23:20.930Z,58.30
2022-09-26T11:25:58.137Z,55.00
2022-09-26T11:28:34.354Z,53.90
2022-09-26T11:31:09.972Z,56.80
2022-09-26T11:41:44.616Z,67.50
2022-09-26T11:57:42.429Z,70.50
2022-09-26T12:00:16.168Z,59.30
2022-09-26T12:03:06.608Z,58.90
2022-09-26T12:05:45.649Z,51.00
2022-09-26T12:08:25.821Z,45.30
2022-09-26T12:11:02.878Z,42.80
2022-09-26T12:13:40.349Z,38.10
2022-09-26T12:16:14.588Z,39.60
2022-09-26T12:18:54.817Z,39.80
2022-09-26T12:21:29.146Z,43.60
2022-09-26T12:24:03.874Z,45.50
2022-09-26T12:26:39.853Z,41.20
2022-09-26T12:29:23.512Z,39.00
2022-09-26T12:32:06.380Z,31.20
2022-09-26T12:34:48.336Z,24.70
2022-09-26T12:37:37.249Z,30.20
2022-09-26T12:40:22.917Z,35.20
2022-09-26T12:43:14.178Z,35.20
2022-09-26T12:46:00.019Z,25.30
2022-09-26T12:48:58.794Z,22.90
2022-09-26T12:51:37.690Z,22.90
2022-09-26T12:54:38.376Z,26.10
2022-09-26T12:57:17.207Z,30.10
2022-09-26T13:00:04.908Z,31.80
2022-09-26T13:03:12.007Z,33.80
2022-09-26T13:05:58.052Z,27.50
2022-09-26T13:08:37.002Z,33.30
2022-09-26T13:11:19.685Z,30.70
2022-09-26T13:14:27.014Z,35.20
2022-09-26T13:17:06.422Z,34.40
2022-09-26T13:19:49.628Z,34.00
2022-09-26T13:22:26.014Z,34.00
2022-09-26T13:25:22.733Z,33.40
2022-09-26T13:28:47.635Z,33.30
2022-09-26T13:31:22.827Z,31.60
2022-09-26T13:34:10.138Z,35.00
2022-09-26T13:37:10.219Z,37.40
2022-09-26T13:40:18.188Z,29.00
2022-09-26T13:43:24.373Z,21.00
2022-09-26T13:46:23.055Z,12.60
2022-09-26T13:49:28.752Z,10.50
2022-09-26T13:55:51.767Z,18.70
2022-09-26T13:58:47.913Z,19.10
2022-09-26T14:01:44.704Z,13.40
2022-09-26T14:04:49.639Z,13.80
2022-09-26T14:07:45.699Z,14.20
2022-09-26T14:10:58.906Z,12.80
2022-09-26T14:13:47.691Z,11.80
2022-09-26T14:16:40.316Z,12.00
2022-09-26T14:19:34.880Z,10.70
2022-09-26T14:22:34.055Z,15.50
2022-09-26T14:25:51.180Z,17.70
2022-09-26T14:28:40.692Z,24.50
2022-09-26T14:31:57.007Z,27.30
2022-09-26T14:34:56.446Z,31.80
2022-09-26T14:37:59.279Z,31.30
2022-09-26T14:41:18.420Z,32.80
2022-09-26T14:46:57.993Z,39.80
2022-09-26T14:49:55.769Z,41.40
2022-09-26T14:52:49.711Z,45.10
2022-09-26T14:55:44.164Z,50.30
2022-09-26T15:04:41.451Z,58.50
2022-09-26T15:07:27.731Z,48.20
2022-09-26T15:10:28.140Z,40.40
2022-09-26T15:13:56.866Z,42.90
2022-09-26T15:19:53.400Z,41.90
2022-09-26T15:22:30.030Z,38.20
2022-09-26T15:25:36.342Z,36.50
2022-09-26T15:28:14.369Z,42.80
2022-09-26T15:30:53.307Z,44.50
2022-09-26T15:33:55.141Z,47.20
2022-09-26T15:36:58.753Z,46.00
2022-09-26T15:39:57.938Z,41.40
2022-09-26T15:46:40.371Z,33.00
2022-09-26T15:59:12.467Z,53.10
2022-09-26T16:01:51.724Z,57.10
2022-09-26T16:04:53.199Z,62.70
2022-09-26T16:07:42.498Z,65.80
2022-09-26T16:10:40.720Z,70.10
2022-09-26T16:13:41.300Z,72.50
2022-09-26T16:16:28.520Z,72.60
2022-09-26T16:19:36.644Z,77.80
2022-09-26T16:23:04.425Z,83.40
2022-09-26T16:26:18.518Z,86.80
2022-09-26T16:29:06.094Z,88.40
2022-09-26T16:31:48.742Z,90.30
2022-09-26T16:35:29.608Z,90.90
2022-09-26T16:42:05.330Z,94.80
2022-09-26T16:44:46.827Z,94.50
2022-09-26T16:47:54.860Z,92.50
2022-09-26T16:50:43.770Z,93.10
2022-09-26T16:53:38.892Z,90.70
2022-09-26T16:56:42.115Z,90.50
2022-09-26T16:59:34.082Z,92.20
2022-09-26T17:02:35.665Z,93.30
2022-09-26T17:08:48.425Z,93.10
2022-09-26T17:11:43.146Z,93.80
2022-09-26T17:14:52.397Z,93.40
2022-09-26T17:17:50.276Z,92.40
2022-09-26T17:20:47.614Z,90.30
2022-09-26T17:23:41.579Z,93.10
2022-09-26T17:29:53.330Z,93.00
2022-09-26T17:32:50.065Z,93.10
2022-09-26T17:35:54.734Z,94.10
2022-09-26T17:41:24.563Z,96.20
2022-09-26T17:44:09.784Z,96.10
2022-09-26T17:46:42.539Z,97.60
2022-09-26T17:49:43.348Z,98.50
2022-09-26T17:52:32.867Z,99.90
2022-09-26T17:55:15.431Z,99.90
2022-09-26T17:57:51.796Z,99.90
2022-09-26T18:00:33.136Z,99.90
2022-09-26T18:03:19.078Z,99.90
2022-09-26T18:06:13.833Z,99.90
2022-09-26T18:08:57.262Z,99.90
2022-09-26T18:11:55.889Z,99.90
2022-09-26T18:18:05.661Z,99.90
2022-09-26T18:21:14.126Z,99.90
2022-09-26T18:24:07.025Z,99.90
2022-09-26T18:30:06.544Z,99.90
2022-09-26T18:32:51.292Z,99.90
2022-09-26T18:35:38.131Z,99.90
2022-09-26T18:38:07.217Z,99.90
2022-09-26T18:40:38.839Z,99.90
2022-09-26T18:43:07.701Z,99.90
2022-09-26T18:45:36.624Z,99.90
2022-09-26T18:48:08.373Z,99.90
2022-09-26T18:50:37.637Z,99.90
2022-09-26T18:53:12.026Z,99.90
2022-09-26T18:55:57.670Z,99.90
2022-09-26T18:58:27.194Z,99.90
2022-09-26T19:00:59.619Z,99.90
2022-09-26T19:03:33.996Z,99.90
2022-09-26T19:06:05.890Z,99.90
2022-09-26T19:08:36.810Z,99.90
2022-09-26T19:11:13.095Z,99.90
2022-09-26T19:13:41.302Z,99.90
2022-09-26T19:16:11.441Z,99.90
2022-09-26T19:18:41.724Z,99.90
2022-09-26T19:21:17.711Z,99.90
2022-09-26T19:23:47.286Z,99.90
2022-09-26T19:26:25.933Z,99.90
2022-09-26T19:28:54.914Z,99.90
2022-09-26T19:31:23.182Z,99.90
2022-09-26T19:33:54.118Z,99.90
2022-09-26T19:36:22.971Z,99.90
2022-09-26T19:38:50.975Z,99.90
2022-09-26T19:41:19.052Z,99.90
2022-09-26T19:43:47.077Z,99.90
2022-09-26T19:46:24.977Z,99.90
2022-09-26T19:48:54.646Z,99.90
2022-09-26T19:51:23.038Z,99.90
2022-09-26T19:53:51.073Z,99.90
2022-09-26T19:56:19.126Z,99.90
2022-09-26T19:58:48.606Z,99.90
2022-09-26T20:01:19.374Z,99.90
2022-09-26T20:03:47.819Z,99.90
2022-09-26T20:06:21.092Z,99.90
2022-09-26T20:08:49.837Z,99.90
2022-09-26T20:11:18.333Z,99.90
2022-09-26T20:14:07.071Z,99.90
2022-09-26T20:16:39.233Z,99.90
2022-09-26T20:19:08.332Z,99.90
2022-09-26T20:21:37.912Z,99.90
2022-09-26T20:24:08.245Z,99.90
2022-09-26T20:26:36.978Z,99.90
2022-09-26T20:29:05.083Z,99.90
2022-09-26T20:31:33.405Z,99.90
2022-09-26T20:34:01.637Z,99.90
2022-09-26T20:36:33.148Z,99.90
2022-09-26T20:39:06.483Z,99.90
2022-09-26T20:41:37.601Z,99.90
2022-09-26T20:44:08.285Z,99.90
2022-09-26T20:46:40.186Z,99.90
2022-09-26T20:49:14.869Z,99.90
2022-09-26T20:51:44.441Z,99.90
2022-09-26T20:54:26.136Z,99.90
2022-09-26T20:56:55.244Z,99.90
2022-09-26T20:59:24.025Z,99.90
2022-09-26T21:01:53.295Z,99.90
2022-09-26T21:04:30.038Z,99.90
2022-09-26T21:06:58.504Z,99.90
2022-09-26T21:09:27.988Z,99.90
2022-09-26T21:11:56.380Z,99.90
2022-09-26T21:14:25.408Z,99.90
2022-09-26T21:16:53.872Z,99.90
2022-09-26T21:19:24.180Z,99.90
2022-09-26T21:21:52.807Z,99.90
2022-09-26T21:24:27.441Z,99.90
2022-09-26T21:26:56.905Z,99.90
2022-09-26T21:29:24.912Z,99.90
2022-09-26T21:31:56.214Z,99.90
2022-09-26T21:34:25.380Z,99.90
2022-09-26T21:36:56.902Z,99.90
2022-09-26T21:39:26.188Z,99.90
2022-09-26T21:41:58.538Z,99.90
2022-09-26T21:44:29.989Z,99.90
2022-09-26T21:46:58.089Z,99.90
2022-09-26T21:49:26.508Z,99.90
2022-09-26T21:51:57.415Z,99.90
2022-09-26T21:54:30.479Z,99.90
2022-09-26T21:57:04.903Z,99.90
2022-09-26T21:59:33.113Z,99.90
2022-09-26T22:02:01.261Z,99.90
2022-09-26T22:04:29.360Z,99.90
2022-09-26T22:06:57.334Z,99.90
2022-09-26T22:09:25.393Z,99.90
2022-09-26T22:11:53.484Z,99.90
2022-09-26T22:14:22.913Z,99.90
2022-09-26T22:16:50.962Z,99.90
2022-09-26T22:19:19.109Z,99.90
2022-09-26T22:21:47.598Z,99.90
2022-09-26T22:24:15.946Z,99.90
2022-09-26T22:26:45.176Z,99.90
2022-09-26T22:29:13.400Z,99.90
2022-09-26T22:31:43.171Z,99.90
